sensor_id;sensor_type;location;lat;lon;timestamp;temperature;humidity
64501;DHT22;50874;24.150;-110.320;2022-09-14T00:01:14;36.40;90.90
64501;DHT22;50874;24.150;-110.320;2022-09-14T00:03:41;36.40;90.70
64501;DHT22;50874;24.150;-110.320;2022-09-14T00:06:13;36.40;90.70
64501;DHT22;50874;24.150;-110.320;2022-09-14T00:08:41;36.50;90.80
64501;DHT22;50874;24.150;-110.320;2022-09-14T00:11:13;36.10;91.10
64501;DHT22;50874;24.150;-110.320;2022-09-14T00:13:44;36.20;91.20
64501;DHT22;50874;24.150;-110.320;2022-09-14T00:16:22;36.20;90.90
64501;DHT22;50874;24.150;-110.320;2022-09-14T00:18:52;36.10;91.10
64501;DHT22;50874;24.150;-110.320;2022-09-14T00:21:21;36.00;91.40
64501;DHT22;50874;24.150;-110.320;2022-09-14T00:23:47;36.00;91.20
64501;DHT22;50874;24.150;-110.320;2022-09-14T00:26:18;35.90;91.50
64501;DHT22;50874;24.150;-110.320;2022-09-14T00:28:50;35.70;91.80
64501;DHT22;50874;24.150;-110.320;2022-09-14T00:31:18;35.70;91.90
64501;DHT22;50874;24.150;-110.320;2022-09-14T00:33:47;35.80;92.00
64501;DHT22;50874;24.150;-110.320;2022-09-14T00:36:24;35.60;92.60
64501;DHT22;50874;24.150;-110.320;2022-09-14T00:38:52;35.50;92.20
64501;DHT22;50874;24.150;-110.320;2022-09-14T00:41:24;35.20;92.50
64501;DHT22;50874;24.150;-110.320;2022-09-14T00:46:42;35.10;92.50
64501;DHT22;50874;24.150;-110.320;2022-09-14T00:49:29;35.10;93.00
64501;DHT22;50874;24.150;-110.320;2022-09-14T00:52:05;34.90;92.70
64501;DHT22;50874;24.150;-110.320;2022-09-14T00:54:44;34.90;93.10
64501;DHT22;50874;24.150;-110.320;2022-09-14T00:57:11;34.90;93.30
64501;DHT22;50874;24.150;-110.320;2022-09-14T00:59:41;34.90;93.10
64501;DHT22;50874;24.150;-110.320;2022-09-14T01:02:10;34.80;93.20
64501;DHT22;50874;24.150;-110.320;2022-09-14T01:04:37;34.70;93.10
64501;DHT22;50874;24.150;-110.320;2022-09-14T01:07:09;34.50;93.40
64501;DHT22;50874;24.150;-110.320;2022-09-14T01:10:06;34.50;93.60
64501;DHT22;50874;24.150;-110.320;2022-09-14T01:31:46;33.80;94.80
64501;DHT22;50874;24.150;-110.320;2022-09-14T01:34:35;33.70;95.10
64501;DHT22;50874;24.150;-110.320;2022-09-14T01:37:10;33.70;95.20
64501;DHT22;50874;24.150;-110.320;2022-09-14T01:39:44;33.60;95.20
64501;DHT22;50874;24.150;-110.320;2022-09-14T01:42:12;33.60;95.10
64501;DHT22;50874;24.150;-110.320;2022-09-14T01:44:47;33.60;94.70
64501;DHT22;50874;24.150;-110.320;2022-09-14T01:47:19;33.70;94.70
64501;DHT22;50874;24.150;-110.320;2022-09-14T01:50:13;33.70;94.60
64501;DHT22;50874;24.150;-110.320;2022-09-14T01:52:48;33.70;94.50
64501;DHT22;50874;24.150;-110.320;2022-09-14T01:55:27;33.80;94.50
64501;DHT22;50874;24.150;-110.320;2022-09-14T01:58:19;33.70;94.50
64501;DHT22;50874;24.150;-110.320;2022-09-14T02:00:48;33.60;94.40
64501;DHT22;50874;24.150;-110.320;2022-09-14T02:03:23;33.50;94.90
64501;DHT22;50874;24.150;-110.320;2022-09-14T02:05:58;33.40;95.30
64501;DHT22;50874;24.150;-110.320;2022-09-14T02:08:27;33.40;95.70
64501;DHT22;50874;24.150;-110.320;2022-09-14T02:10:55;33.20;96.10
64501;DHT22;50874;24.150;-110.320;2022-09-14T02:13:23;33.00;96.70
64501;DHT22;50874;24.150;-110.320;2022-09-14T02:15:49;32.80;97.10
64501;DHT22;50874;24.150;-110.320;2022-09-14T02:18:16;32.70;97.50
64501;DHT22;50874;24.150;-110.320;2022-09-14T02:21:11;32.60;97.80
64501;DHT22;50874;24.150;-110.320;2022-09-14T02:23:39;32.30;98.00
64501;DHT22;50874;24.150;-110.320;2022-09-14T02:26:05;32.00;98.50
64501;DHT22;50874;24.150;-110.320;2022-09-14T02:28:32;31.80;99.10
64501;DHT22;50874;24.150;-110.320;2022-09-14T02:31:14;31.70;99.40
64501;DHT22;50874;24.150;-110.320;2022-09-14T02:37:05;31.50;99.70
64501;DHT22;50874;24.150;-110.320;2022-09-14T02:43:03;31.00;99.90
64501;DHT22;50874;24.150;-110.320;2022-09-14T02:46:08;30.90;99.90
64501;DHT22;50874;24.150;-110.320;2022-09-14T02:49:07;30.70;99.90
64501;DHT22;50874;24.150;-110.320;2022-09-14T02:54:11;30.40;99.90
64501;DHT22;50874;24.150;-110.320;2022-09-14T02:56:40;30.40;99.90
64501;DHT22;50874;24.150;-110.320;2022-09-14T02:59:06;30.40;99.90
64501;DHT22;50874;24.150;-110.320;2022-09-14T03:01:33;30.40;99.90
64501;DHT22;50874;24.150;-110.320;2022-09-14T03:03:59;30.30;99.90
64501;DHT22;50874;24.150;-110.320;2022-09-14T03:06:26;30.40;99.90
64501;DHT22;50874;24.150;-110.320;2022-09-14T03:08:52;30.30;99.90
64501;DHT22;50874;24.150;-110.320;2022-09-14T03:11:19;30.10;99.90
64501;DHT22;50874;24.150;-110.320;2022-09-14T03:13:45;30.10;99.90
64501;DHT22;50874;24.150;-110.320;2022-09-14T03:16:15;30.00;99.90
64501;DHT22;50874;24.150;-110.320;2022-09-14T03:18:41;29.90;99.90
64501;DHT22;50874;24.150;-110.320;2022-09-14T03:21:10;29.80;99.90
64501;DHT22;50874;24.150;-110.320;2022-09-14T03:23:38;29.80;99.90
64501;DHT22;50874;24.150;-110.320;2022-09-14T03:26:16;29.80;99.90
64501;DHT22;50874;24.150;-110.320;2022-09-14T03:28:42;29.80;99.90
64501;DHT22;50874;24.150;-110.320;2022-09-14T03:31:11;29.80;99.90
64501;DHT22;50874;24.150;-110.320;2022-09-14T03:33:38;29.70;99.90
64501;DHT22;50874;24.150;-110.320;2022-09-14T03:36:16;29.60;99.90
64501;DHT22;50874;24.150;-110.320;2022-09-14T03:38:49;29.50;99.90
64501;DHT22;50874;24.150;-110.320;2022-09-14T03:41:17;29.40;99.90
64501;DHT22;50874;24.150;-110.320;2022-09-14T03:43:43;29.40;99.90
64501;DHT22;50874;24.150;-110.320;2022-09-14T03:46:13;29.50;99.90
64501;DHT22;50874;24.150;-110.320;2022-09-14T03:48:40;29.40;99.90
64501;DHT22;50874;24.150;-110.320;2022-09-14T03:51:08;29.50;99.90
64501;DHT22;50874;24.150;-110.320;2022-09-14T03:53:35;29.50;99.90
64501;DHT22;50874;24.150;-110.320;2022-09-14T03:56:12;29.50;99.90
64501;DHT22;50874;24.150;-110.320;2022-09-14T03:58:39;29.50;99.90
64501;DHT22;50874;24.150;-110.320;2022-09-14T04:01:10;29.40;99.90
64501;DHT22;50874;24.150;-110.320;2022-09-14T04:03:37;29.40;99.90
64501;DHT22;50874;24.150;-110.320;2022-09-14T04:06:04;29.40;99.90
64501;DHT22;50874;24.150;-110.320;2022-09-14T04:08:36;29.40;99.90
64501;DHT22;50874;24.150;-110.320;2022-09-14T04:11:22;29.40;99.90
64501;DHT22;50874;24.150;-110.320;2022-09-14T04:13:50;29.30;99.90
64501;DHT22;50874;24.150;-110.320;2022-09-14T04:16:18;29.20;99.90
64501;DHT22;50874;24.150;-110.320;2022-09-14T04:18:48;29.10;99.90
64501;DHT22;50874;24.150;-110.320;2022-09-14T04:21:16;29.00;99.90
64501;DHT22;50874;24.150;-110.320;2022-09-14T04:23:43;29.00;99.90
64501;DHT22;50874;24.150;-110.320;2022-09-14T04:26:16;29.00;99.90
64501;DHT22;50874;24.150;-110.320;2022-09-14T04:28:43;29.00;99.90
64501;DHT22;50874;24.150;-110.320;2022-09-14T04:31:11;29.00;99.90
64501;DHT22;50874;24.150;-110.320;2022-09-14T04:33:39;29.00;99.90
64501;DHT22;50874;24.150;-110.320;2022-09-14T04:36:12;28.90;99.90
64501;DHT22;50874;24.150;-110.320;2022-09-14T04:38:39;28.90;99.90
64501;DHT22;50874;24.150;-110.320;2022-09-14T04:41:13;28.90;99.90
64501;DHT22;50874;24.150;-110.320;2022-09-14T04:43:41;28.90;99.90
64501;DHT22;50874;24.150;-110.320;2022-09-14T04:46:14;28.80;99.90
64501;DHT22;50874;24.150;-110.320;2022-09-14T04:48:41;28.80;99.90
64501;DHT22;50874;24.150;-110.320;2022-09-14T04:51:12;28.70;99.90
64501;DHT22;50874;24.150;-110.320;2022-09-14T04:53:41;28.70;99.90
64501;DHT22;50874;24.150;-110.320;2022-09-14T04:56:10;28.60;99.90
64501;DHT22;50874;24.150;-110.320;2022-09-14T04:58:38;28.50;99.90
64501;DHT22;50874;24.150;-110.320;2022-09-14T05:01:11;28.50;99.90
64501;DHT22;50874;24.150;-110.320;2022-09-14T05:03:39;28.50;99.90
64501;DHT22;50874;24.150;-110.320;2022-09-14T05:06:15;28.50;99.90
64501;DHT22;50874;24.150;-110.320;2022-09-14T05:08:42;28.40;99.90
64501;DHT22;50874;24.150;-110.320;2022-09-14T05:11:13;28.40;99.90
64501;DHT22;50874;24.150;-110.320;2022-09-14T05:13:39;28.30;99.90
64501;DHT22;50874;24.150;-110.320;2022-09-14T05:16:23;28.30;99.90
64501;DHT22;50874;24.150;-110.320;2022-09-14T05:18:52;28.20;99.90
64501;DHT22;50874;24.150;-110.320;2022-09-14T05:21:20;28.20;99.90
64501;DHT22;50874;24.150;-110.320;2022-09-14T05:23:51;28.20;99.90
64501;DHT22;50874;24.150;-110.320;2022-09-14T05:26:17;28.10;99.90
64501;DHT22;50874;24.150;-110.320;2022-09-14T05:28:52;28.10;99.90
64501;DHT22;50874;24.150;-110.320;2022-09-14T05:31:19;28.10;99.90
64501;DHT22;50874;24.150;-110.320;2022-09-14T05:33:46;28.00;99.90
64501;DHT22;50874;24.150;-110.320;2022-09-14T05:36:13;28.00;99.90
64501;DHT22;50874;24.150;-110.320;2022-09-14T05:38:40;27.90;99.90
64501;DHT22;50874;24.150;-110.320;2022-09-14T05:41:09;28.00;99.90
64501;DHT22;50874;24.150;-110.320;2022-09-14T05:43:36;28.00;99.90
64501;DHT22;50874;24.150;-110.320;2022-09-14T05:46:05;27.90;99.90
64501;DHT22;50874;24.150;-110.320;2022-09-14T05:48:33;27.90;99.90
64501;DHT22;50874;24.150;-110.320;2022-09-14T05:51:02;27.90;99.90
64501;DHT22;50874;24.150;-110.320;2022-09-14T05:53:28;27.80;99.90
64501;DHT22;50874;24.150;-110.320;2022-09-14T05:56:06;27.80;99.90
64501;DHT22;50874;24.150;-110.320;2022-09-14T05:58:35;27.70;99.90
64501;DHT22;50874;24.150;-110.320;2022-09-14T06:01:17;27.70;99.90
64501;DHT22;50874;24.150;-110.320;2022-09-14T06:03:44;27.70;99.90
64501;DHT22;50874;24.150;-110.320;2022-09-14T06:06:13;27.60;99.90
64501;DHT22;50874;24.150;-110.320;2022-09-14T06:08:40;27.50;99.90
64501;DHT22;50874;24.150;-110.320;2022-09-14T06:11:14;27.60;99.90
64501;DHT22;50874;24.150;-110.320;2022-09-14T06:13:41;27.60;99.90
64501;DHT22;50874;24.150;-110.320;2022-09-14T06:16:13;27.60;99.90
64501;DHT22;50874;24.150;-110.320;2022-09-14T06:18:40;27.60;99.90
64501;DHT22;50874;24.150;-110.320;2022-09-14T06:21:09;27.50;99.90
64501;DHT22;50874;24.150;-110.320;2022-09-14T06:23:36;27.50;99.90
64501;DHT22;50874;24.150;-110.320;2022-09-14T06:26:04;27.50;99.90
64501;DHT22;50874;24.150;-110.320;2022-09-14T06:28:31;27.50;99.90
64501;DHT22;50874;24.150;-110.320;2022-09-14T06:30:58;27.50;99.90
64501;DHT22;50874;24.150;-110.320;2022-09-14T06:33:24;27.50;99.90
64501;DHT22;50874;24.150;-110.320;2022-09-14T06:36:05;27.50;99.90
64501;DHT22;50874;24.150;-110.320;2022-09-14T06:38:36;27.50;99.90
64501;DHT22;50874;24.150;-110.320;2022-09-14T06:41:05;27.40;99.90
64501;DHT22;50874;24.150;-110.320;2022-09-14T06:43:33;27.40;99.90
64501;DHT22;50874;24.150;-110.320;2022-09-14T06:46:02;27.40;99.90
64501;DHT22;50874;24.150;-110.320;2022-09-14T06:48:30;27.40;99.90
64501;DHT22;50874;24.150;-110.320;2022-09-14T06:50:57;27.40;99.90
64501;DHT22;50874;24.150;-110.320;2022-09-14T06:53:24;27.40;99.90
64501;DHT22;50874;24.150;-110.320;2022-09-14T06:55:51;27.40;99.90
64501;DHT22;50874;24.150;-110.320;2022-09-14T06:58:18;27.50;99.90
64501;DHT22;50874;24.150;-110.320;2022-09-14T07:00:44;27.50;99.90
64501;DHT22;50874;24.150;-110.320;2022-09-14T07:03:10;27.60;99.90
64501;DHT22;50874;24.150;-110.320;2022-09-14T07:05:37;27.50;99.90
64501;DHT22;50874;24.150;-110.320;2022-09-14T07:08:03;27.60;99.90
64501;DHT22;50874;24.150;-110.320;2022-09-14T07:10:30;27.60;99.90
64501;DHT22;50874;24.150;-110.320;2022-09-14T07:12:59;27.50;99.90
64501;DHT22;50874;24.150;-110.320;2022-09-14T07:15:26;27.50;99.90
64501;DHT22;50874;24.150;-110.320;2022-09-14T07:17:52;27.50;99.90
64501;DHT22;50874;24.150;-110.320;2022-09-14T07:20:19;27.60;99.90
64501;DHT22;50874;24.150;-110.320;2022-09-14T07:22:45;27.50;99.90
64501;DHT22;50874;24.150;-110.320;2022-09-14T07:25:12;27.50;99.90
64501;DHT22;50874;24.150;-110.320;2022-09-14T07:27:38;27.60;99.90
64501;DHT22;50874;24.150;-110.320;2022-09-14T07:30:06;27.50;99.90
64501;DHT22;50874;24.150;-110.320;2022-09-14T07:32:32;27.50;99.90
64501;DHT22;50874;24.150;-110.320;2022-09-14T07:34:59;27.50;99.90
64501;DHT22;50874;24.150;-110.320;2022-09-14T07:37:25;27.50;99.90
64501;DHT22;50874;24.150;-110.320;2022-09-14T07:39:52;27.50;99.90
64501;DHT22;50874;24.150;-110.320;2022-09-14T07:42:19;27.50;99.90
64501;DHT22;50874;24.150;-110.320;2022-09-14T07:44:45;27.50;99.90
64501;DHT22;50874;24.150;-110.320;2022-09-14T07:47:12;27.50;99.90
64501;DHT22;50874;24.150;-110.320;2022-09-14T07:49:38;27.50;99.90
64501;DHT22;50874;24.150;-110.320;2022-09-14T07:52:05;27.50;99.90
64501;DHT22;50874;24.150;-110.320;2022-09-14T07:54:31;27.50;99.90
64501;DHT22;50874;24.150;-110.320;2022-09-14T07:57:00;27.50;99.90
64501;DHT22;50874;24.150;-110.320;2022-09-14T07:59:26;27.50;99.90
64501;DHT22;50874;24.150;-110.320;2022-09-14T08:01:53;27.50;99.90
64501;DHT22;50874;24.150;-110.320;2022-09-14T08:04:19;27.40;99.90
64501;DHT22;50874;24.150;-110.320;2022-09-14T08:06:46;27.40;99.90
64501;DHT22;50874;24.150;-110.320;2022-09-14T08:09:13;27.30;99.90
64501;DHT22;50874;24.150;-110.320;2022-09-14T08:11:40;27.30;99.90
64501;DHT22;50874;24.150;-110.320;2022-09-14T08:14:08;27.20;99.90
64501;DHT22;50874;24.150;-110.320;2022-09-14T08:16:36;27.10;99.90
64501;DHT22;50874;24.150;-110.320;2022-09-14T08:19:05;27.10;99.90
64501;DHT22;50874;24.150;-110.320;2022-09-14T08:21:33;27.10;99.90
64501;DHT22;50874;24.150;-110.320;2022-09-14T08:24:00;27.10;99.90
64501;DHT22;50874;24.150;-110.320;2022-09-14T08:26:29;27.20;99.90
64501;DHT22;50874;24.150;-110.320;2022-09-14T08:28:56;27.20;99.90
64501;DHT22;50874;24.150;-110.320;2022-09-14T08:31:26;27.10;99.90
64501;DHT22;50874;24.150;-110.320;2022-09-14T08:34:02;27.10;99.90
64501;DHT22;50874;24.150;-110.320;2022-09-14T08:36:31;27.10;99.90
64501;DHT22;50874;24.150;-110.320;2022-09-14T08:38:58;27.00;99.90
64501;DHT22;50874;24.150;-110.320;2022-09-14T08:41:29;26.90;99.90
64501;DHT22;50874;24.150;-110.320;2022-09-14T08:44:30;26.80;99.90
64501;DHT22;50874;24.150;-110.320;2022-09-14T08:52:11;26.70;99.90
64501;DHT22;50874;24.150;-110.320;2022-09-14T08:54:38;26.70;99.90
64501;DHT22;50874;24.150;-110.320;2022-09-14T08:57:25;26.70;99.90
64501;DHT22;50874;24.150;-110.320;2022-09-14T09:00:13;26.60;99.90
64501;DHT22;50874;24.150;-110.320;2022-09-14T09:08:22;26.30;99.90
64501;DHT22;50874;24.150;-110.320;2022-09-14T09:10:52;26.40;99.90
64501;DHT22;50874;24.150;-110.320;2022-09-14T09:13:22;26.40;99.90
64501;DHT22;50874;24.150;-110.320;2022-09-14T09:15:55;26.40;99.90
64501;DHT22;50874;24.150;-110.320;2022-09-14T09:18:43;26.30;99.90
64501;DHT22;50874;24.150;-110.320;2022-09-14T09:21:14;26.40;99.90
64501;DHT22;50874;24.150;-110.320;2022-09-14T09:23:42;26.50;99.90
64501;DHT22;50874;24.150;-110.320;2022-09-14T09:26:15;26.50;99.90
64501;DHT22;50874;24.150;-110.320;2022-09-14T09:28:48;26.50;99.90
64501;DHT22;50874;24.150;-110.320;2022-09-14T09:31:17;26.50;99.90
64501;DHT22;50874;24.150;-110.320;2022-09-14T09:33:49;26.50;99.90
64501;DHT22;50874;24.150;-110.320;2022-09-14T09:36:16;26.50;99.90
64501;DHT22;50874;24.150;-110.320;2022-09-14T09:38:43;26.40;99.90
64501;DHT22;50874;24.150;-110.320;2022-09-14T09:41:19;26.40;99.90
64501;DHT22;50874;24.150;-110.320;2022-09-14T09:44:01;26.30;99.90
64501;DHT22;50874;24.150;-110.320;2022-09-14T09:46:32;26.30;99.90
64501;DHT22;50874;24.150;-110.320;2022-09-14T09:49:13;26.20;99.90
64501;DHT22;50874;24.150;-110.320;2022-09-14T09:51:40;26.10;99.90
64501;DHT22;50874;24.150;-110.320;2022-09-14T09:56:52;25.90;99.90
64501;DHT22;50874;24.150;-110.320;2022-09-14T09:59:37;25.90;99.90
64501;DHT22;50874;24.150;-110.320;2022-09-14T10:02:26;25.80;99.90
64501;DHT22;50874;24.150;-110.320;2022-09-14T10:05:27;25.80;99.90
64501;DHT22;50874;24.150;-110.320;2022-09-14T10:07:59;25.80;99.90
64501;DHT22;50874;24.150;-110.320;2022-09-14T10:10:42;25.80;99.90
64501;DHT22;50874;24.150;-110.320;2022-09-14T10:13:30;25.80;99.90
64501;DHT22;50874;24.150;-110.320;2022-09-14T10:16:17;25.80;99.90
64501;DHT22;50874;24.150;-110.320;2022-09-14T10:18:47;25.80;99.90
64501;DHT22;50874;24.150;-110.320;2022-09-14T10:21:16;25.80;99.90
64501;DHT22;50874;24.150;-110.320;2022-09-14T10:23:43;25.80;99.90
64501;DHT22;50874;24.150;-110.320;2022-09-14T10:28:41;25.90;99.90
64501;DHT22;50874;24.150;-110.320;2022-09-14T10:33:47;25.80;99.90
64501;DHT22;50874;24.150;-110.320;2022-09-14T10:48:34;25.60;99.90
64501;DHT22;50874;24.150;-110.320;2022-09-14T10:58:21;25.60;99.90
64501;DHT22;50874;24.150;-110.320;2022-09-14T11:01:05;25.60;99.90
64501;DHT22;50874;24.150;-110.320;2022-09-14T11:12:11;25.60;99.90
64501;DHT22;50874;24.150;-110.320;2022-09-14T11:14:49;25.50;99.90
64501;DHT22;50874;24.150;-110.320;2022-09-14T11:20:42;25.50;99.90
64501;DHT22;50874;24.150;-110.320;2022-09-14T11:31:24;25.50;99.90
64501;DHT22;50874;24.150;-110.320;2022-09-14T11:33:56;25.50;99.90
64501;DHT22;50874;24.150;-110.320;2022-09-14T11:36:34;25.50;99.90
64501;DHT22;50874;24.150;-110.320;2022-09-14T11:39:58;25.50;99.90
64501;DHT22;50874;24.150;-110.320;2022-09-14T11:41:59;25.50;99.90
64501;DHT22;50874;24.150;-110.320;2022-09-14T11:44:40;25.50;99.90
64501;DHT22;50874;24.150;-110.320;2022-09-14T11:47:19;25.60;99.90
64501;DHT22;50874;24.150;-110.320;2022-09-14T11:49:59;25.60;99.90
64501;DHT22;50874;24.150;-110.320;2022-09-14T11:52:30;25.60;99.90
64501;DHT22;50874;24.150;-110.320;2022-09-14T11:54:58;25.60;99.90
64501;DHT22;50874;24.150;-110.320;2022-09-14T11:57:30;25.60;99.90
64501;DHT22;50874;24.150;-110.320;2022-09-14T12:00:00;25.60;99.90
64501;DHT22;50874;24.150;-110.320;2022-09-14T12:15:35;25.40;99.90
64501;DHT22;50874;24.150;-110.320;2022-09-14T12:26:02;25.30;99.90
64501;DHT22;50874;24.150;-110.320;2022-09-14T12:28:47;25.20;99.90
64501;DHT22;50874;24.150;-110.320;2022-09-14T12:34:18;25.20;99.90
64501;DHT22;50874;24.150;-110.320;2022-09-14T12:39:28;25.10;99.90
64501;DHT22;50874;24.150;-110.320;2022-09-14T12:49:54;25.00;99.90
64501;DHT22;50874;24.150;-110.320;2022-09-14T12:55:07;24.90;99.90
64501;DHT22;50874;24.150;-110.320;2022-09-14T12:57:55;24.90;99.90
64501;DHT22;50874;24.150;-110.320;2022-09-14T13:00:23;24.90;99.90
64501;DHT22;50874;24.150;-110.320;2022-09-14T13:05:36;24.80;99.90
64501;DHT22;50874;24.150;-110.320;2022-09-14T13:08:09;24.80;99.90
64501;DHT22;50874;24.150;-110.320;2022-09-14T13:10:43;24.80;99.90
64501;DHT22;50874;24.150;-110.320;2022-09-14T13:13:25;24.90;99.90
64501;DHT22;50874;24.150;-110.320;2022-09-14T13:15:59;24.90;99.90
64501;DHT22;50874;24.150;-110.320;2022-09-14T13:18:33;24.90;99.90
64501;DHT22;50874;24.150;-110.320;2022-09-14T13:21:03;24.90;99.90
64501;DHT22;50874;24.150;-110.320;2022-09-14T13:23:41;24.90;99.90
64501;DHT22;50874;24.150;-110.320;2022-09-14T13:26:19;24.90;99.90
64501;DHT22;50874;24.150;-110.320;2022-09-14T13:28:47;25.00;99.90
64501;DHT22;50874;24.150;-110.320;2022-09-14T13:33:51;25.00;99.90
64501;DHT22;50874;24.150;-110.320;2022-09-14T13:36:22;25.10;99.90
64501;DHT22;50874;24.150;-110.320;2022-09-14T13:38:49;25.20;99.90
64501;DHT22;50874;24.150;-110.320;2022-09-14T13:41:19;25.30;99.90
64501;DHT22;50874;24.150;-110.320;2022-09-14T13:43:50;25.40;99.90
64501;DHT22;50874;24.150;-110.320;2022-09-14T13:46:20;25.40;99.90
64501;DHT22;50874;24.150;-110.320;2022-09-14T13:48:48;25.50;99.90
64501;DHT22;50874;24.150;-110.320;2022-09-14T13:51:15;25.60;99.90
64501;DHT22;50874;24.150;-110.320;2022-09-14T13:53:50;25.60;99.90
64501;DHT22;50874;24.150;-110.320;2022-09-14T13:56:21;25.70;99.90
64501;DHT22;50874;24.150;-110.320;2022-09-14T13:58:50;25.80;99.90
64501;DHT22;50874;24.150;-110.320;2022-09-14T14:01:51;25.90;99.90
64501;DHT22;50874;24.150;-110.320;2022-09-14T14:04:37;26.00;99.90
64501;DHT22;50874;24.150;-110.320;2022-09-14T14:09:51;26.30;99.90
64501;DHT22;50874;24.150;-110.320;2022-09-14T14:12:28;26.50;99.90
64501;DHT22;50874;24.150;-110.320;2022-09-14T14:17:30;27.30;99.90
64501;DHT22;50874;24.150;-110.320;2022-09-14T14:20:37;27.60;99.90
64501;DHT22;50874;24.150;-110.320;2022-09-14T14:25:41;28.50;99.90
64501;DHT22;50874;24.150;-110.320;2022-09-14T14:30:42;29.10;99.90
64501;DHT22;50874;24.150;-110.320;2022-09-14T14:33:14;29.10;99.90
64501;DHT22;50874;24.150;-110.320;2022-09-14T14:35:44;29.30;99.90
64501;DHT22;50874;24.150;-110.320;2022-09-14T14:38:11;29.50;99.90
64501;DHT22;50874;24.150;-110.320;2022-09-14T14:40:38;30.00;99.90
64501;DHT22;50874;24.150;-110.320;2022-09-14T14:43:06;30.20;99.90
64501;DHT22;50874;24.150;-110.320;2022-09-14T14:45:33;30.30;99.90
64501;DHT22;50874;24.150;-110.320;2022-09-14T14:48:01;30.70;99.90
64501;DHT22;50874;24.150;-110.320;2022-09-14T14:50:30;30.90;99.90
64501;DHT22;50874;24.150;-110.320;2022-09-14T14:52:59;31.10;99.90
64501;DHT22;50874;24.150;-110.320;2022-09-14T14:55:27;31.10;99.90
64501;DHT22;50874;24.150;-110.320;2022-09-14T14:57:58;31.20;99.90
64501;DHT22;50874;24.150;-110.320;2022-09-14T15:00:31;31.70;99.90
64501;DHT22;50874;24.150;-110.320;2022-09-14T15:02:58;31.90;99.90
64501;DHT22;50874;24.150;-110.320;2022-09-14T15:05:25;32.20;99.90
64501;DHT22;50874;24.150;-110.320;2022-09-14T15:07:52;32.50;99.90
64501;DHT22;50874;24.150;-110.320;2022-09-14T15:10:21;32.90;99.90
64501;DHT22;50874;24.150;-110.320;2022-09-14T15:12:49;33.20;99.90
64501;DHT22;50874;24.150;-110.320;2022-09-14T15:15:23;33.40;99.90
64501;DHT22;50874;24.150;-110.320;2022-09-14T15:17:51;33.40;99.90
64501;DHT22;50874;24.150;-110.320;2022-09-14T15:20:18;33.50;99.90
64501;DHT22;50874;24.150;-110.320;2022-09-14T15:22:48;33.70;99.90
64501;DHT22;50874;24.150;-110.320;2022-09-14T15:25:16;33.80;99.90
64501;DHT22;50874;24.150;-110.320;2022-09-14T15:27:43;34.20;99.90
64501;DHT22;50874;24.150;-110.320;2022-09-14T15:30:14;34.50;99.90
64501;DHT22;50874;24.150;-110.320;2022-09-14T15:32:41;34.50;99.90
64501;DHT22;50874;24.150;-110.320;2022-09-14T15:35:10;34.60;99.90
64501;DHT22;50874;24.150;-110.320;2022-09-14T15:41:03;35.00;99.70
64501;DHT22;50874;24.150;-110.320;2022-09-14T15:43:30;35.00;99.50
64501;DHT22;50874;24.150;-110.320;2022-09-14T15:46:05;34.90;99.00
64501;DHT22;50874;24.150;-110.320;2022-09-14T15:48:52;35.20;98.90
64501;DHT22;50874;24.150;-110.320;2022-09-14T15:51:19;35.80;98.70
64501;DHT22;50874;24.150;-110.320;2022-09-14T15:53:45;36.00;97.80
64501;DHT22;50874;24.150;-110.320;2022-09-14T15:56:14;36.30;97.80
64501;DHT22;50874;24.150;-110.320;2022-09-14T15:58:41;36.20;97.70
64501;DHT22;50874;24.150;-110.320;2022-09-14T16:01:12;36.40;97.20
64501;DHT22;50874;24.150;-110.320;2022-09-14T16:03:39;36.30;96.80
64501;DHT22;50874;24.150;-110.320;2022-09-14T16:06:09;36.30;96.80
64501;DHT22;50874;24.150;-110.320;2022-09-14T16:08:36;36.50;96.40
64501;DHT22;50874;24.150;-110.320;2022-09-14T16:11:04;36.90;95.80
64501;DHT22;50874;24.150;-110.320;2022-09-14T16:13:31;36.90;95.70
64501;DHT22;50874;24.150;-110.320;2022-09-14T16:16:05;37.20;95.60
64501;DHT22;50874;24.150;-110.320;2022-09-14T16:18:33;37.50;94.60
64501;DHT22;50874;24.150;-110.320;2022-09-14T16:21:20;37.70;94.50
64501;DHT22;50874;24.150;-110.320;2022-09-14T16:23:56;38.10;93.60
64501;DHT22;50874;24.150;-110.320;2022-09-14T16:26:28;38.40;92.90
64501;DHT22;50874;24.150;-110.320;2022-09-14T16:29:27;38.80;92.90
64501;DHT22;50874;24.150;-110.320;2022-09-14T16:31:53;39.10;92.30
64501;DHT22;50874;24.150;-110.320;2022-09-14T16:34:40;39.40;92.00
64501;DHT22;50874;24.150;-110.320;2022-09-14T16:37:06;39.90;91.20
64501;DHT22;50874;24.150;-110.320;2022-09-14T16:39:45;39.90;90.90
64501;DHT22;50874;24.150;-110.320;2022-09-14T16:42:14;40.10;90.30
64501;DHT22;50874;24.150;-110.320;2022-09-14T16:44:44;40.00;90.10
64501;DHT22;50874;24.150;-110.320;2022-09-14T16:50:17;40.20;87.50
64501;DHT22;50874;24.150;-110.320;2022-09-14T16:52:44;40.30;85.60
64501;DHT22;50874;24.150;-110.320;2022-09-14T16:55:11;40.50;86.60
64501;DHT22;50874;24.150;-110.320;2022-09-14T16:57:38;40.70;86.80
64501;DHT22;50874;24.150;-110.320;2022-09-14T17:00:05;41.00;85.30
64501;DHT22;50874;24.150;-110.320;2022-09-14T17:02:35;40.80;85.50
64501;DHT22;50874;24.150;-110.320;2022-09-14T17:05:02;40.60;85.10
64501;DHT22;50874;24.150;-110.320;2022-09-14T17:07:32;41.00;84.40
64501;DHT22;50874;24.150;-110.320;2022-09-14T17:10:02;41.20;83.50
64501;DHT22;50874;24.150;-110.320;2022-09-14T17:12:28;41.40;83.10
64501;DHT22;50874;24.150;-110.320;2022-09-14T17:14:55;41.30;83.30
64501;DHT22;50874;24.150;-110.320;2022-09-14T17:17:21;41.20;83.50
64501;DHT22;50874;24.150;-110.320;2022-09-14T17:19:51;40.90;83.20
64501;DHT22;50874;24.150;-110.320;2022-09-14T17:22:18;40.90;83.10
64501;DHT22;50874;24.150;-110.320;2022-09-14T17:24:45;41.10;83.10
64501;DHT22;50874;24.150;-110.320;2022-09-14T17:27:14;40.90;82.50
64501;DHT22;50874;24.150;-110.320;2022-09-14T17:29:43;41.30;82.00
64501;DHT22;50874;24.150;-110.320;2022-09-14T17:32:12;41.60;82.40
64501;DHT22;50874;24.150;-110.320;2022-09-14T17:34:39;41.20;81.50
64501;DHT22;50874;24.150;-110.320;2022-09-14T17:37:06;40.90;82.90
64501;DHT22;50874;24.150;-110.320;2022-09-14T17:39:32;40.90;83.00
64501;DHT22;50874;24.150;-110.320;2022-09-14T17:41:59;41.20;83.30